Aérodrome :
LOGIN :

S'inscrire | Disclaimer

   EN    FR    IT 

 










Légende :    VFR   VFR Marginal   IFR   IFR Intensif   IFR Très Intensif
Visi : 
Plafond : 
>= 8 km
>= 3000ft
5 à 8 km
1000 à 3000 ft
1500m à 5 km
500 à 1000 ft
800 à 1500m
200 à 500 ft
< 800m
< 200 ft
Symboles :   Orages  Brouillard  Fortes neiges  Fortes précipitations  Vent > 20 kt
SIGMETs :   Divers  Orages  Givrage  Turbulence  Onde Orograph.  Cendres Volcan.







- Altitude de l'aérodrome : 29 ft


LIRM - Grazzanise Caserta

DERNIER METAR :
  • 181755Z 24002KT 6000 NSC 08/05 Q1024 RMK SKC VIS MIN 6000 WIND THR06 21002KT WHT

METARs EXPIRÉS :
  • 181655Z 25003KT 6000 FEW030 10/06 Q1024 RMK FEW VIS MIN 6000 WIND THR06 22003KT WHT
  • 181555Z 26005KT 7000 FEW030 12/06 Q1024

TAF TAF LIRM
Valide du 18 à 18h jusqu'au 19 à 03h UTC


181700Z 1818/1903 32003KT 6000 FEW030
BECMG 1820/1822 4000 BR
Pas de NOTAMs connus pour ce terrain.
1 SIGMET publié pour la FIR Roma (LIRR) :
 
Cendres volcaniques
LIRR SIGMET 10 VALID 181402/182000 LIIB
LIRR ROMA FIR VA ERUPTION MT ETNA PSN N3744 E01500 VA CLD OBS AT 1400Z WI N3740 E01500 - N3819 E01315 - N3845 E01325 - N3755 E01500 - N3740 E01500 MOV WNW 10KT SFC/FL140 NC=



MET'MAP, la Météo Aéronautique d'un coup d'oeil ! - Copyright ORBIFLY Décembre 2007 - Disclaimer

ORBIFLY MET'MAP TEAM :

Programmation & Développement : Alexandra Zaïnal
Conception & Développement : Baudouin d'Aumeries
Co-Programmation & Développement : Marc-Olivier Méhu
Soutien technique & logistique : Manuel Goepfert

Contact : metmap@orbifly.com




SOURCES & CREDITS :

   NOAA